Time;durP1;ratioP1;P1;durP2;ratioP2;P2;SDS_P1;SDS_P2;PMS_P1;PMS_P2;Temp;Humidity;BMP_temperature;BMP_pressure;BME280_temperature;BME280_humidity;BME280_pressure;Samples;Min_cycle;Max_cycle;Signal;HPM_P1;HPM_P2
2021/01/03 00:01:26;;;;;;;8.43;4.47;;;0.60;99.90;;;;;;5048807;28;20191;-61
2021/01/03 00:03:52;;;;;;;6.43;3.90;;;0.60;99.90;;;;;;5059975;28;20543;-62
2021/01/03 00:06:17;;;;;;;7.93;5.03;;;0.50;99.90;;;;;;5059038;28;20526;-62
2021/01/03 00:08:43;;;;;;;7.88;4.28;;;0.50;99.90;;;;;;5058045;28;20429;-60
2021/01/03 00:11:09;;;;;;;8.10;4.32;;;0.50;99.90;;;;;;5059383;28;20424;-62
2021/01/03 00:13:35;;;;;;;9.02;4.55;;;0.60;99.90;;;;;;5059467;28;20083;-62
2021/01/03 00:16:00;;;;;;;9.20;3.97;;;0.60;99.90;;;;;;5044881;28;20117;-60
2021/01/03 00:18:26;;;;;;;7.43;4.15;;;0.50;99.90;;;;;;5045846;28;20040;-59
2021/01/03 00:20:51;;;;;;;5.50;3.45;;;0.50;99.90;;;;;;5047341;28;20108;-62
2021/01/03 00:23:18;;;;;;;8.00;4.47;;;0.40;99.90;;;;;;5045514;28;20048;-61
2021/01/03 00:25:44;;;;;;;8.48;4.93;;;0.50;99.90;;;;;;5047928;28;20037;-60
2021/01/03 00:28:09;;;;;;;7.68;4.30;;;0.50;99.90;;;;;;5045227;28;20938;-62
2021/01/03 00:30:35;;;;;;;7.60;4.38;;;0.40;99.90;;;;;;5041829;28;20044;-56
2021/01/03 00:33:01;;;;;;;11.65;4.75;;;0.30;99.90;;;;;;5026760;28;20048;-61
2021/01/03 00:35:30;;;;;;;7.35;4.15;;;0.30;99.90;;;;;;5026972;28;20132;-61
2021/01/03 00:38:05;;;;;;;11.48;4.53;;;0.30;99.90;;;;;;5025503;28;20123;-62
2021/01/03 00:40:31;;;;;;;6.75;4.03;;;0.40;99.90;;;;;;5026435;28;20037;-62
2021/01/03 00:42:57;;;;;;;8.13;4.60;;;0.40;99.90;;;;;;5027245;28;20052;-62
2021/01/03 00:45:23;;;;;;;9.70;4.25;;;0.30;99.90;;;;;;5026415;28;20037;-62
2021/01/03 00:47:49;;;;;;;6.82;4.15;;;0.30;99.90;;;;;;5026458;28;20036;-61
2021/01/03 00:50:15;;;;;;;7.63;4.38;;;0.20;99.90;;;;;;5025384;28;20540;-61
2021/01/03 00:52:41;;;;;;;8.90;4.25;;;0.30;99.90;;;;;;5026890;28;20068;-62
2021/01/03 00:55:08;;;;;;;7.68;4.43;;;0.30;99.90;;;;;;5041968;28;20493;-62
2021/01/03 00:57:34;;;;;;;7.07;4.25;;;0.30;99.90;;;;;;5026196;28;20049;-62
2021/01/03 00:59:59;;;;;;;6.78;3.97;;;0.30;99.90;;;;;;5024698;28;20041;-62
2021/01/03 01:02:25;;;;;;;5.47;3.78;;;0.20;99.90;;;;;;5025432;28;20038;-62
2021/01/03 01:04:51;;;;;;;7.15;4.32;;;0.20;99.90;;;;;;5024578;28;20143;-60
2021/01/03 01:07:16;;;;;;;8.40;4.40;;;0.20;99.90;;;;;;5019537;28;20045;-62
2021/01/03 01:09:42;;;;;;;6.85;3.63;;;0.30;99.90;;;;;;5017398;28;20042;-60
2021/01/03 01:12:07;;;;;;;4.97;3.10;;;0.30;99.90;;;;;;5026935;28;20041;-61
2021/01/03 01:14:33;;;;;;;6.20;3.75;;;0.20;99.90;;;;;;5026058;28;20067;-62
2021/01/03 01:16:58;;;;;;;6.05;3.58;;;0.30;99.90;;;;;;5040169;28;20083;-61
2021/01/03 01:19:24;;;;;;;5.88;3.55;;;0.30;99.90;;;;;;5044428;28;20564;-62
2021/01/03 01:21:50;;;;;;;5.68;3.30;;;0.30;99.90;;;;;;5045182;28;20581;-62
2021/01/03 01:24:15;;;;;;;5.68;3.78;;;0.30;99.90;;;;;;5044688;28;20068;-61
2021/01/03 01:26:41;;;;;;;6.07;3.42;;;0.30;99.90;;;;;;5044171;28;20039;-62
2021/01/03 01:29:07;;;;;;;6.20;3.80;;;0.30;99.90;;;;;;5042962;28;20049;-62
2021/01/03 01:31:32;;;;;;;5.10;3.33;;;0.30;99.90;;;;;;5045167;28;20033;-62
2021/01/03 01:33:58;;;;;;;5.80;3.50;;;0.20;99.90;;;;;;5045152;28;20144;-62
2021/01/03 01:36:23;;;;;;;7.18;4.00;;;0.20;99.90;;;;;;5045310;28;20090;-61
2021/01/03 01:38:49;;;;;;;5.13;3.20;;;0.30;99.90;;;;;;5043988;28;20041;-61
2021/01/03 01:41:14;;;;;;;9.02;4.43;;;0.20;99.90;;;;;;5043900;28;20103;-59
2021/01/03 01:43:40;;;;;;;5.57;3.47;;;0.20;99.90;;;;;;5045891;28;20052;-61
2021/01/03 01:46:08;;;;;;;5.78;3.60;;;0.20;99.90;;;;;;5044352;28;20051;-60
2021/01/03 01:48:39;;;;;;;6.82;4.43;;;0.20;99.90;;;;;;5043405;28;20077;-62
2021/01/03 01:51:14;;;;;;;6.13;3.70;;;0.20;99.90;;;;;;5025318;28;20723;-62
2021/01/03 01:54:06;;;;;;;6.97;4.00;;;0.20;99.90;;;;;;5036909;28;20037;-61
2021/01/03 01:56:47;;;;;;;4.60;3.53;;;0.20;99.90;;;;;;5044905;28;20170;-62
2021/01/03 01:59:46;;;;;;;6.10;3.97;;;0.30;99.90;;;;;;5043874;28;20036;-61
2021/01/03 02:02:19;;;;;;;5.80;3.90;;;0.40;99.90;;;;;;5038753;28;20037;-61
2021/01/03 02:05:16;;;;;;;6.55;4.10;;;0.40;99.90;;;;;;5043885;28;20091;-58
2021/01/03 02:08:05;;;;;;;4.20;2.83;;;0.40;99.90;;;;;;5038486;28;20045;-61
2021/01/03 02:10:44;;;;;;;5.90;3.80;;;0.30;99.90;;;;;;5059483;28;20040;-62
2021/01/03 02:13:17;;;;;;;5.13;3.60;;;0.30;99.90;;;;;;5044281;28;20120;-60
2021/01/03 02:15:45;;;;;;;5.15;3.17;;;0.30;99.90;;;;;;5044089;28;20461;-61
2021/01/03 02:18:12;;;;;;;6.47;3.33;;;0.20;99.90;;;;;;5043854;28;20146;-63
2021/01/03 02:20:47;;;;;;;5.95;4.10;;;0.20;99.90;;;;;;5044195;28;20072;-62
2021/01/03 02:23:18;;;;;;;5.57;3.50;;;0.30;99.90;;;;;;5041182;28;20523;-61
2021/01/03 02:25:44;;;;;;;7.95;4.13;;;0.20;99.90;;;;;;5043400;28;20873;-61
2021/01/03 02:28:12;;;;;;;7.03;3.97;;;0.20;99.90;;;;;;5044083;28;20074;-62
2021/01/03 02:30:40;;;;;;;5.70;3.45;;;0.30;99.90;;;;;;5042534;28;20128;-59
2021/01/03 02:33:25;;;;;;;8.07;4.13;;;0.30;99.90;;;;;;5044127;28;20063;-61
2021/01/03 02:35:55;;;;;;;7.35;3.20;;;0.30;99.90;;;;;;5040951;28;20483;-59
2021/01/03 02:38:25;;;;;;;5.28;3.10;;;0.30;99.90;;;;;;5042280;28;20040;-59
2021/01/03 02:40:50;;;;;;;5.30;3.50;;;0.20;99.90;;;;;;5043244;28;20094;-61
2021/01/03 02:43:16;;;;;;;4.35;2.85;;;0.30;99.90;;;;;;5043087;28;20041;-62
2021/01/03 02:45:42;;;;;;;5.57;3.13;;;0.40;99.90;;;;;;5043621;28;20790;-62
2021/01/03 02:48:16;;;;;;;3.97;2.97;;;0.40;99.90;;;;;;5041858;28;20072;-60
2021/01/03 02:50:42;;;;;;;4.95;3.33;;;0.40;99.90;;;;;;5042485;28;20068;-61
2021/01/03 02:53:08;;;;;;;4.72;3.30;;;0.40;99.90;;;;;;5041968;28;20072;-62
2021/01/03 02:55:35;;;;;;;5.00;3.40;;;0.50;99.90;;;;;;5042299;28;20055;-61
2021/01/03 02:58:00;;;;;;;5.00;3.50;;;0.50;99.90;;;;;;5043720;28;20098;-58
2021/01/03 03:00:32;;;;;;;4.88;2.80;;;0.50;99.90;;;;;;5041086;28;20522;-59
2021/01/03 03:02:58;;;;;;;5.70;3.17;;;0.50;99.90;;;;;;5043584;28;20045;-61
2021/01/03 03:05:24;;;;;;;5.63;2.90;;;0.50;99.90;;;;;;5043055;28;20464;-62
2021/01/03 03:07:50;;;;;;;5.18;3.20;;;0.50;99.90;;;;;;5043534;28;20041;-61
2021/01/03 03:10:17;;;;;;;5.43;3.45;;;0.50;99.90;;;;;;5043128;28;20052;-60
2021/01/03 03:12:47;;;;;;;5.63;3.42;;;0.40;99.90;;;;;;5044103;28;20052;-62
2021/01/03 03:15:14;;;;;;;7.57;3.35;;;0.50;99.90;;;;;;5043447;28;20112;-62
2021/01/03 03:17:39;;;;;;;5.28;3.40;;;0.50;99.90;;;;;;5044264;28;20574;-61
2021/01/03 03:20:06;;;;;;;6.00;3.42;;;0.50;99.90;;;;;;5042508;28;20037;-61
2021/01/03 03:22:32;;;;;;;9.05;4.03;;;0.60;99.90;;;;;;5044245;28;20060;-61
2021/01/03 03:24:57;;;;;;;6.88;3.78;;;0.50;99.90;;;;;;5043527;28;20753;-60
2021/01/03 03:27:23;;;;;;;6.95;4.18;;;0.50;99.90;;;;;;5044482;28;20048;-62
2021/01/03 03:29:48;;;;;;;7.43;4.35;;;0.50;99.90;;;;;;5043324;28;20040;-62
2021/01/03 03:32:14;;;;;;;7.30;4.22;;;0.50;99.90;;;;;;5043732;28;20040;-61
2021/01/03 03:34:40;;;;;;;8.75;4.70;;;0.60;99.90;;;;;;5043918;28;20044;-61
2021/01/03 03:37:05;;;;;;;7.13;4.25;;;0.60;99.90;;;;;;5043326;28;20032;-60
2021/01/03 03:39:31;;;;;;;7.80;4.72;;;0.60;99.90;;;;;;5042210;28;20205;-60
2021/01/03 03:41:57;;;;;;;8.40;4.60;;;0.50;99.90;;;;;;5043776;28;20044;-61
2021/01/03 03:44:24;;;;;;;9.63;5.05;;;0.50;99.90;;;;;;5038301;28;20119;-62
2021/01/03 03:46:52;;;;;;;8.63;5.07;;;0.50;99.90;;;;;;5037165;28;20048;-61
2021/01/03 03:49:18;;;;;;;9.45;5.40;;;0.50;99.90;;;;;;5039882;28;20052;-61
2021/01/03 03:51:43;;;;;;;7.70;5.32;;;0.40;99.90;;;;;;5047419;28;20572;-62
2021/01/03 03:54:09;;;;;;;9.80;5.63;;;0.50;99.90;;;;;;5047101;28;20049;-60
2021/01/03 03:56:34;;;;;;;12.05;6.53;;;0.50;99.90;;;;;;5046400;28;20120;-61
2021/01/03 03:59:00;;;;;;;10.52;6.38;;;0.50;99.90;;;;;;5046309;28;20358;-62
2021/01/03 04:01:25;;;;;;;14.05;7.13;;;0.50;99.90;;;;;;5047035;28;20041;-60
2021/01/03 04:03:51;;;;;;;10.77;5.72;;;0.50;99.90;;;;;;5047165;28;20198;-61
2021/01/03 04:06:25;;;;;;;15.77;7.03;;;0.50;99.90;;;;;;5046749;28;20048;-62
2021/01/03 04:08:51;;;;;;;16.98;6.80;;;0.50;99.90;;;;;;5042137;28;20497;-60
2021/01/03 04:11:16;;;;;;;11.70;6.57;;;0.50;99.90;;;;;;5047128;28;20124;-61
2021/01/03 04:13:42;;;;;;;15.02;7.30;;;0.40;99.90;;;;;;5045935;28;20041;-62
2021/01/03 04:16:07;;;;;;;12.60;6.88;;;0.50;99.90;;;;;;5045876;28;20029;-62
2021/01/03 04:18:33;;;;;;;14.35;7.38;;;0.40;99.90;;;;;;5044695;28;20067;-62
2021/01/03 04:20:59;;;;;;;13.85;7.35;;;0.50;99.90;;;;;;5046509;28;20033;-62
2021/01/03 04:23:25;;;;;;;11.40;6.63;;;0.50;99.90;;;;;;5038339;28;20040;-60
2021/01/03 04:25:50;;;;;;;14.90;7.47;;;0.40;99.90;;;;;;5047135;28;20073;-61
2021/01/03 04:28:16;;;;;;;15.25;7.50;;;0.40;99.90;;;;;;5044940;28;20037;-60
2021/01/03 04:30:43;;;;;;;15.13;8.15;;;0.40;99.90;;;;;;5044877;28;20505;-61
2021/01/03 04:33:08;;;;;;;14.85;7.30;;;0.40;99.90;;;;;;5045556;28;20045;-62
2021/01/03 04:35:34;;;;;;;14.18;7.28;;;0.40;99.90;;;;;;5045034;28;20073;-61
2021/01/03 04:37:59;;;;;;;16.30;8.95;;;0.40;99.90;;;;;;5046388;28;20061;-61
2021/01/03 04:40:28;;;;;;;17.10;8.13;;;0.40;99.90;;;;;;5045112;28;20516;-59
2021/01/03 04:42:57;;;;;;;18.15;8.27;;;0.40;99.90;;;;;;5045744;28;20045;-61
2021/01/03 04:45:40;;;;;;;14.25;7.75;;;0.40;99.90;;;;;;5044624;28;20055;-62
2021/01/03 04:48:16;;;;;;;15.15;8.70;;;0.40;99.90;;;;;;5044744;28;20024;-60
2021/01/03 04:50:50;;;;;;;15.65;8.90;;;0.50;99.90;;;;;;5045838;28;20635;-62
2021/01/03 04:53:34;;;;;;;17.13;8.88;;;0.50;99.90;;;;;;5045694;28;20036;-61
2021/01/03 04:56:39;;;;;;;15.10;8.35;;;0.50;99.90;;;;;;5039819;28;20082;-61
2021/01/03 04:59:26;;;;;;;15.50;8.63;;;0.40;99.90;;;;;;5017639;28;20134;-62
2021/01/03 05:02:03;;;;;;;18.17;8.68;;;0.40;99.90;;;;;;5037606;28;20044;-61
2021/01/03 05:05:02;;;;;;;21.15;9.93;;;0.50;99.90;;;;;;5044542;28;20041;-62
2021/01/03 05:07:31;;;;;;;18.88;9.90;;;0.50;99.90;;;;;;5044590;28;20041;-62
2021/01/03 05:10:10;;;;;;;16.52;8.90;;;0.40;99.90;;;;;;5045160;28;20069;-62
2021/01/03 05:12:52;;;;;;;18.85;9.20;;;0.50;99.90;;;;;;5044588;28;20552;-62
2021/01/03 05:15:25;;;;;;;21.23;11.45;;;0.50;99.90;;;;;;5044066;28;20030;-62
2021/01/03 05:17:52;;;;;;;19.88;11.05;;;0.50;99.90;;;;;;5058337;28;20037;-62
2021/01/03 05:20:18;;;;;;;19.58;10.77;;;0.50;99.90;;;;;;5044407;28;20041;-62
2021/01/03 05:22:44;;;;;;;18.45;10.30;;;0.40;99.90;;;;;;5045883;28;20094;-62
2021/01/03 05:25:11;;;;;;;20.17;10.05;;;0.40;99.90;;;;;;5044447;28;20033;-62
2021/01/03 05:27:37;;;;;;;18.48;9.10;;;0.40;99.90;;;;;;5044393;28;20073;-62
2021/01/03 05:30:15;;;;;;;19.00;10.52;;;0.50;99.90;;;;;;5044215;28;20060;-62
2021/01/03 05:32:41;;;;;;;20.15;10.98;;;0.40;99.90;;;;;;5027603;28;20052;-62
2021/01/03 05:35:22;;;;;;;22.02;11.35;;;0.40;99.90;;;;;;5037221;28;20037;-62
2021/01/03 05:37:50;;;;;;;20.80;11.35;;;0.40;99.90;;;;;;5027376;28;20041;-61
2021/01/03 05:40:25;;;;;;;18.73;10.75;;;0.40;99.90;;;;;;5020585;28;20034;-62
2021/01/03 05:43:16;;;;;;;24.65;11.50;;;0.40;99.90;;;;;;5031892;28;20418;-62
2021/01/03 05:46:08;;;;;;;18.85;10.07;;;0.40;99.90;;;;;;5034810;28;20072;-62
2021/01/03 05:49:01;;;;;;;22.10;12.02;;;0.40;99.90;;;;;;5031854;28;20080;-61
2021/01/03 05:51:48;;;;;;;22.77;11.52;;;0.40;99.90;;;;;;5037757;28;20025;-61
2021/01/03 05:54:17;;;;;;;21.27;11.40;;;0.40;99.90;;;;;;5044726;28;20236;-63
2021/01/03 05:56:44;;;;;;;20.13;10.68;;;0.40;99.90;;;;;;5044125;28;20037;-61
2021/01/03 05:59:33;;;;;;;20.83;10.32;;;0.40;99.90;;;;;;5035231;28;20069;-61
2021/01/03 06:02:22;;;;;;;25.10;12.65;;;0.40;99.90;;;;;;5041418;28;20036;-61
2021/01/03 06:05:00;;;;;;;25.20;12.52;;;0.40;99.90;;;;;;5037505;28;20116;-61
2021/01/03 06:07:28;;;;;;;22.17;12.02;;;0.40;99.90;;;;;;5029894;28;20046;-62
2021/01/03 06:09:54;;;;;;;22.95;12.23;;;0.40;99.90;;;;;;5043376;28;20410;-62
2021/01/03 06:12:26;;;;;;;22.98;11.98;;;0.40;99.90;;;;;;5042168;28;20033;-61
2021/01/03 06:14:58;;;;;;;21.27;11.63;;;0.30;99.90;;;;;;5044200;28;20045;-61
2021/01/03 06:17:29;;;;;;;25.55;12.35;;;0.20;99.90;;;;;;5056516;28;20072;-62
2021/01/03 06:20:14;;;;;;;26.63;12.23;;;0.20;99.90;;;;;;5037482;28;20287;-61
2021/01/03 06:22:50;;;;;;;23.42;11.68;;;0.20;99.90;;;;;;5032674;28;20053;-61
2021/01/03 06:25:44;;;;;;;20.88;11.73;;;0.20;99.90;;;;;;5034324;28;20048;-61
2021/01/03 06:28:11;;;;;;;21.92;10.98;;;0.30;99.90;;;;;;5031611;28;20517;-62
2021/01/03 06:30:41;;;;;;;22.15;11.15;;;0.30;99.90;;;;;;5038077;28;20069;-62
2021/01/03 06:33:30;;;;;;;18.90;10.02;;;0.30;99.90;;;;;;5038983;28;20508;-62
2021/01/03 06:36:12;;;;;;;23.42;11.20;;;0.30;99.90;;;;;;5028435;28;20045;-62
2021/01/03 06:38:53;;;;;;;22.08;12.40;;;0.30;99.90;;;;;;5034325;28;20037;-61
2021/01/03 06:41:24;;;;;;;22.42;12.02;;;0.20;99.90;;;;;;5037588;28;20139;-62
2021/01/03 06:44:21;;;;;;;27.45;13.02;;;0.20;99.90;;;;;;5035051;28;20033;-61
2021/01/03 06:47:22;;;;;;;21.90;11.05;;;0.10;99.90;;;;;;4988049;28;20069;-61
2021/01/03 06:50:39;;;;;;;22.85;11.95;;;0.20;99.90;;;;;;5041007;28;20041;-61
2021/01/03 06:53:35;;;;;;;20.45;10.57;;;0.30;99.90;;;;;;5021106;28;20048;-62
2021/01/03 06:56:28;;;;;;;22.58;11.05;;;0.40;99.90;;;;;;5028698;28;20036;-62
2021/01/03 06:59:15;;;;;;;24.77;12.20;;;0.40;99.90;;;;;;5039780;28;20043;-61
2021/01/03 07:01:41;;;;;;;;;;;0.30;99.90;;;;;;5033856;28;20132;-63
2021/01/03 07:04:15;;;;;;;20.88;10.35;;;0.40;99.90;;;;;;5040849;28;19971;-62
2021/01/03 07:06:45;;;;;;;21.65;11.45;;;0.40;99.90;;;;;;5033425;28;20095;-63
2021/01/03 07:09:13;;;;;;;23.52;11.82;;;0.40;99.90;;;;;;5042235;28;20122;-63
2021/01/03 07:11:38;;;;;;;24.65;12.77;;;0.40;99.90;;;;;;5041713;28;20033;-63
2021/01/03 07:14:06;;;;;;;24.05;12.95;;;0.50;99.90;;;;;;5042748;28;20045;-61
2021/01/03 07:16:54;;;;;;;23.30;11.73;;;0.50;99.90;;;;;;5032908;28;20698;-63
2021/01/03 07:19:35;;;;;;;21.65;11.38;;;0.50;99.90;;;;;;5018104;28;20052;-62
2021/01/03 07:22:12;;;;;;;24.08;12.55;;;0.50;99.90;;;;;;5031331;28;20045;-62
2021/01/03 07:24:44;;;;;;;20.98;11.52;;;0.50;99.90;;;;;;5040175;28;20644;-62
2021/01/03 07:27:24;;;;;;;20.27;11.18;;;0.50;99.90;;;;;;5026476;28;21096;-60
2021/01/03 07:29:54;;;;;;;21.13;11.40;;;0.50;99.90;;;;;;5024263;28;20807;-61
2021/01/03 07:32:27;;;;;;;21.40;10.85;;;0.50;99.90;;;;;;5033547;28;20032;-61
2021/01/03 07:34:54;;;;;;;23.95;11.20;;;0.50;99.90;;;;;;5034659;28;20643;-61
2021/01/03 07:37:32;;;;;;;26.13;11.43;;;0.50;99.90;;;;;;5033984;28;20124;-57
2021/01/03 07:40:06;;;;;;;21.85;10.95;;;0.50;99.90;;;;;;5026618;28;20041;-63
2021/01/03 07:42:37;;;;;;;18.17;10.10;;;0.50;99.90;;;;;;5036267;28;20048;-60
2021/01/03 07:45:51;;;;;;;23.63;11.48;;;0.50;99.90;;;;;;5036619;28;20737;-63
2021/01/03 07:48:37;;;;;;;23.95;12.18;;;0.50;99.90;;;;;;5023111;28;20037;-66
2021/01/03 07:51:07;;;;;;;24.03;10.77;;;0.40;99.90;;;;;;5026872;28;20068;-57
2021/01/03 07:53:36;;;;;;;19.10;9.93;;;0.40;99.90;;;;;;5027218;28;20377;-58
2021/01/03 07:56:21;;;;;;;19.85;10.77;;;0.40;99.90;;;;;;5030981;23;20045;-62
2021/01/03 07:58:52;;;;;;;18.55;9.00;;;0.40;99.90;;;;;;5039383;28;20799;-64
2021/01/03 08:01:19;;;;;;;16.58;8.85;;;0.40;99.90;;;;;;5029806;28;20379;-65
2021/01/03 08:03:44;;;;;;;16.85;8.88;;;0.40;99.90;;;;;;5008994;28;20041;-63
2021/01/03 08:06:11;;;;;;;17.02;8.57;;;0.40;99.90;;;;;;5033525;28;20497;-65
2021/01/03 08:08:37;;;;;;;16.77;8.15;;;0.40;99.90;;;;;;5025464;28;20076;-62
2021/01/03 08:11:18;;;;;;;17.23;8.43;;;0.30;99.90;;;;;;5026171;28;20045;-61
2021/01/03 08:13:46;;;;;;;15.20;8.18;;;0.30;99.90;;;;;;5038369;28;20041;-63
2021/01/03 08:16:20;;;;;;;15.60;8.15;;;0.30;99.90;;;;;;5035460;28;20041;-59
2021/01/03 08:19:04;;;;;;;15.38;8.60;;;0.30;99.90;;;;;;5031237;28;20049;-63
2021/01/03 08:21:31;;;;;;;16.52;8.43;;;0.40;99.90;;;;;;5033579;28;20041;-62
2021/01/03 08:24:09;;;;;;;15.32;7.80;;;0.40;99.90;;;;;;5022843;28;20049;-63
2021/01/03 08:26:42;;;;;;;16.25;8.23;;;0.40;99.90;;;;;;5027805;28;20048;-61
2021/01/03 08:29:16;;;;;;;16.73;8.40;;;0.40;99.90;;;;;;5032446;28;20072;-60
2021/01/03 08:31:49;;;;;;;15.70;8.13;;;0.30;99.90;;;;;;5022566;28;20052;-57
2021/01/03 08:34:18;;;;;;;15.25;7.55;;;0.30;99.90;;;;;;5025417;28;20041;-60
2021/01/03 08:36:44;;;;;;;13.98;7.25;;;0.40;99.90;;;;;;5034552;28;20107;-60
2021/01/03 08:39:13;;;;;;;12.65;7.05;;;0.40;99.90;;;;;;5024970;28;20490;-58
2021/01/03 08:42:03;;;;;;;12.02;6.88;;;0.40;99.90;;;;;;5026795;28;20045;-57
2021/01/03 08:44:35;;;;;;;13.98;7.20;;;0.40;99.90;;;;;;5027181;28;20125;-61
2021/01/03 08:47:07;;;;;;;11.88;6.03;;;0.40;99.90;;;;;;5032808;28;20131;-57
2021/01/03 08:49:32;;;;;;;11.32;6.13;;;0.40;99.90;;;;;;5027165;28;20482;-58
2021/01/03 08:52:21;;;;;;;13.43;6.60;;;0.40;99.90;;;;;;5031161;28;20053;-59
2021/01/03 08:54:49;;;;;;;10.77;6.05;;;0.40;99.90;;;;;;5028422;28;20052;-59
2021/01/03 08:57:16;;;;;;;10.02;6.03;;;0.40;99.90;;;;;;5032920;28;20124;-60
2021/01/03 08:59:44;;;;;;;12.98;6.13;;;0.40;99.90;;;;;;5032338;28;20052;-60
2021/01/03 09:02:25;;;;;;;14.43;7.15;;;0.40;99.90;;;;;;5024103;28;20040;-59
2021/01/03 09:04:57;;;;;;;13.88;6.47;;;0.50;99.90;;;;;;5017903;28;20038;-59
2021/01/03 09:07:23;;;;;;;13.32;6.22;;;0.50;99.90;;;;;;5038253;28;20060;-59
2021/01/03 09:09:50;;;;;;;11.65;6.20;;;0.60;99.90;;;;;;5034390;28;20052;-59
2021/01/03 09:12:33;;;;;;;12.77;6.35;;;0.70;99.90;;;;;;5037042;28;20576;-56
2021/01/03 09:15:00;;;;;;;10.10;5.80;;;0.70;99.90;;;;;;5026346;28;20033;-57
2021/01/03 09:17:37;;;;;;;11.75;5.95;;;0.70;99.90;;;;;;5019195;28;20044;-58
2021/01/03 09:20:09;;;;;;;10.48;5.45;;;0.70;99.90;;;;;;5025176;28;20065;-55
2021/01/03 09:22:38;;;;;;;10.38;5.72;;;0.70;99.90;;;;;;5025954;28;20041;-55
2021/01/03 09:25:13;;;;;;;8.88;5.47;;;0.70;99.90;;;;;;5024536;28;20049;-55
2021/01/03 09:27:40;;;;;;;10.65;5.45;;;0.70;99.90;;;;;;5017181;28;20056;-62
2021/01/03 09:30:12;;;;;;;12.20;6.03;;;0.70;99.90;;;;;;5023308;28;20041;-59
2021/01/03 09:32:40;;;;;;;13.20;6.40;;;0.70;99.90;;;;;;5043933;28;20128;-59
2021/01/03 09:35:11;;;;;;;11.50;6.25;;;0.70;99.90;;;;;;5046006;28;20040;-57
2021/01/03 09:37:39;;;;;;;9.45;5.40;;;0.80;99.90;;;;;;5038171;28;20046;-56
2021/01/03 09:40:23;;;;;;;12.18;5.82;;;0.80;99.90;;;;;;5026122;28;20076;-54
2021/01/03 09:43:01;;;;;;;11.57;5.97;;;0.80;99.90;;;;;;5025631;28;20805;-59
2021/01/03 09:45:40;;;;;;;8.82;5.13;;;0.80;99.90;;;;;;5039119;28;20138;-59
2021/01/03 09:48:07;;;;;;;13.45;5.45;;;0.70;99.90;;;;;;5022651;28;20037;-58
2021/01/03 09:50:39;;;;;;;10.80;5.43;;;0.80;99.90;;;;;;5017718;28;20501;-59
2021/01/03 09:53:20;;;;;;;9.75;5.70;;;0.80;99.90;;;;;;5045746;28;20406;-59
2021/01/03 09:56:06;;;;;;;13.55;5.88;;;0.80;99.90;;;;;;5045432;28;20036;-58
2021/01/03 09:58:51;;;;;;;12.23;6.18;;;0.90;99.90;;;;;;5044688;28;20495;-58
2021/01/03 10:01:32;;;;;;;14.80;5.93;;;0.80;99.90;;;;;;5044043;28;20044;-60
2021/01/03 10:04:35;;;;;;;11.43;5.60;;;0.70;99.90;;;;;;5045575;28;20044;-59
2021/01/03 10:07:24;;;;;;;11.30;5.55;;;0.70;99.90;;;;;;5043724;28;20049;-59
2021/01/03 10:09:56;;;;;;;9.77;5.32;;;0.70;99.90;;;;;;5045368;28;20700;-59
2021/01/03 10:12:25;;;;;;;11.07;5.47;;;0.60;99.90;;;;;;5045389;28;20814;-60
2021/01/03 10:15:15;;;;;;;10.63;5.93;;;0.70;99.90;;;;;;5038319;28;20044;-60
2021/01/03 10:17:54;;;;;;;10.48;4.95;;;0.70;99.90;;;;;;5042484;28;20048;-61
2021/01/03 10:20:45;;;;;;;10.68;5.47;;;0.70;99.90;;;;;;5045200;28;20048;-60
2021/01/03 10:23:33;;;;;;;12.57;5.88;;;0.80;99.90;;;;;;5037186;28;20710;-58
2021/01/03 10:25:59;;;;;;;12.77;5.88;;;0.80;99.90;;;;;;5045081;28;20048;-61
2021/01/03 10:28:25;;;;;;;10.20;4.68;;;0.60;99.90;;;;;;5042005;28;20090;-61
2021/01/03 10:30:50;;;;;;;10.77;5.65;;;0.60;99.90;;;;;;5043282;28;20431;-59
2021/01/03 10:33:16;;;;;;;12.13;5.25;;;0.70;99.90;;;;;;5040655;28;20096;-57
2021/01/03 10:35:42;;;;;;;13.68;4.65;;;0.80;99.90;;;;;;5025026;28;20045;-60
2021/01/03 10:38:09;;;;;;;11.00;5.18;;;0.80;99.90;;;;;;5037694;28;20044;-60
2021/01/03 10:40:36;;;;;;;9.80;5.05;;;0.70;99.90;;;;;;5044131;28;20039;-57
2021/01/03 10:43:02;;;;;;;9.50;4.80;;;0.70;99.90;;;;;;5044640;28;20112;-59
2021/01/03 10:45:27;;;;;;;11.50;5.30;;;0.80;99.90;;;;;;5043437;28;20508;-60
2021/01/03 10:47:54;;;;;;;7.78;4.57;;;0.70;99.90;;;;;;5044138;28;20036;-59
2021/01/03 10:50:22;;;;;;;8.88;4.82;;;0.80;99.90;;;;;;5044658;28;20064;-61
2021/01/03 10:52:47;;;;;;;12.20;5.20;;;0.70;99.90;;;;;;5044089;28;20647;-64
2021/01/03 10:55:14;;;;;;;9.27;4.72;;;0.70;99.90;;;;;;5042925;28;20132;-64
2021/01/03 10:57:40;;;;;;;7.53;4.25;;;0.70;99.90;;;;;;5031224;28;20069;-63
2021/01/03 11:00:10;;;;;;;8.65;4.22;;;0.70;99.90;;;;;;5043869;28;20120;-65
2021/01/03 11:02:36;;;;;;;7.65;4.43;;;0.70;99.90;;;;;;5044478;28;20066;-64
2021/01/03 11:05:03;;;;;;;9.55;4.47;;;0.70;99.90;;;;;;5044169;28;20064;-64
2021/01/03 11:07:29;;;;;;;10.73;4.30;;;0.70;99.90;;;;;;5040650;28;20779;-63
2021/01/03 11:09:54;;;;;;;8.02;4.13;;;0.80;99.90;;;;;;5044859;28;20110;-62
2021/01/03 11:12:20;;;;;;;9.02;4.20;;;0.70;99.90;;;;;;5042889;28;20048;-63
2021/01/03 11:14:46;;;;;;;6.53;4.05;;;0.70;99.90;;;;;;5044176;28;20124;-64
2021/01/03 11:17:14;;;;;;;7.75;4.13;;;0.70;99.90;;;;;;5024770;28;20041;-64
2021/01/03 11:19:41;;;;;;;9.07;4.18;;;0.70;99.90;;;;;;5044967;28;20044;-62
2021/01/03 11:22:08;;;;;;;7.95;3.53;;;0.70;99.90;;;;;;5032349;28;20040;-62
2021/01/03 11:24:34;;;;;;;8.00;4.45;;;0.60;99.90;;;;;;5024317;28;20120;-61
2021/01/03 11:27:01;;;;;;;7.28;3.53;;;0.60;99.90;;;;;;5031675;28;20140;-64
2021/01/03 11:29:28;;;;;;;6.78;3.50;;;0.70;99.90;;;;;;5043715;28;20405;-63
2021/01/03 11:31:59;;;;;;;8.90;4.07;;;0.60;99.90;;;;;;5044640;28;20079;-64
2021/01/03 11:34:31;;;;;;;7.38;3.65;;;0.70;99.90;;;;;;5044757;28;20135;-62
2021/01/03 11:36:59;;;;;;;8.73;4.75;;;0.70;99.90;;;;;;5035227;28;20402;-62
2021/01/03 11:39:27;;;;;;;7.22;4.05;;;0.70;99.90;;;;;;5044667;28;20036;-63
2021/01/03 11:41:55;;;;;;;8.45;4.53;;;0.70;99.90;;;;;;5042632;28;20552;-62
2021/01/03 11:44:22;;;;;;;8.70;4.10;;;0.70;99.90;;;;;;5044021;28;20111;-60
2021/01/03 11:46:49;;;;;;;7.38;4.18;;;0.70;99.90;;;;;;5041875;28;20033;-62
2021/01/03 11:49:16;;;;;;;7.57;4.18;;;0.60;99.90;;;;;;5042454;28;20064;-63
2021/01/03 11:51:47;;;;;;;7.90;4.43;;;0.60;99.90;;;;;;5034737;28;20053;-63
2021/01/03 11:54:13;;;;;;;7.90;4.35;;;0.60;99.90;;;;;;5024366;28;20080;-63
2021/01/03 11:56:38;;;;;;;9.60;5.05;;;0.60;99.90;;;;;;5023638;28;20072;-63
2021/01/03 11:59:04;;;;;;;6.75;3.90;;;0.60;99.90;;;;;;5023861;28;20069;-63
2021/01/03 12:01:29;;;;;;;9.35;4.32;;;0.60;99.90;;;;;;5024176;28;20116;-64
2021/01/03 12:03:55;;;;;;;11.50;5.70;;;0.60;99.90;;;;;;5044555;28;20112;-63
2021/01/03 12:06:23;;;;;;;8.77;4.55;;;0.60;99.90;;;;;;5035998;28;20509;-64
2021/01/03 12:08:49;;;;;;;8.63;4.65;;;0.70;99.90;;;;;;5023537;28;20034;-63
2021/01/03 12:11:21;;;;;;;10.38;5.10;;;0.70;99.90;;;;;;5025141;28;20041;-62
2021/01/03 12:13:55;;;;;;;9.00;4.72;;;0.70;99.90;;;;;;5027546;28;20045;-65
2021/01/03 12:16:23;;;;;;;8.30;5.07;;;0.70;99.90;;;;;;5032707;28;20077;-62
2021/01/03 12:18:50;;;;;;;10.02;4.88;;;0.70;99.90;;;;;;5044952;28;20044;-64
2021/01/03 12:21:31;;;;;;;8.80;4.82;;;0.70;99.90;;;;;;5035806;28;20106;-64
2021/01/03 12:23:58;;;;;;;8.15;4.47;;;0.70;99.90;;;;;;5046341;28;20043;-60
2021/01/03 12:26:32;;;;;;;11.82;5.03;;;0.80;99.90;;;;;;5029504;28;20144;-59
2021/01/03 12:28:58;;;;;;;10.15;5.53;;;0.80;99.90;;;;;;5046671;28;20037;-59
2021/01/03 12:31:35;;;;;;;10.63;5.32;;;0.70;99.90;;;;;;5029448;28;20047;-61
2021/01/03 12:34:01;;;;;;;8.85;5.22;;;0.60;99.90;;;;;;5032217;28;20067;-58
2021/01/03 12:36:26;;;;;;;12.10;6.32;;;0.60;99.90;;;;;;5046171;28;20580;-60
2021/01/03 12:38:52;;;;;;;11.10;5.43;;;0.60;99.90;;;;;;5033331;28;20052;-60
2021/01/03 12:41:22;;;;;;;10.23;5.18;;;0.70;99.90;;;;;;5027010;28;20040;-60
2021/01/03 12:43:48;;;;;;;11.73;6.05;;;0.60;99.90;;;;;;5040110;28;20567;-60
2021/01/03 12:46:23;;;;;;;9.50;5.25;;;0.60;99.90;;;;;;5042463;28;20533;-58
2021/01/03 12:48:49;;;;;;;11.88;5.50;;;0.70;99.90;;;;;;5044125;28;20052;-56
2021/01/03 12:51:14;;;;;;;11.05;5.63;;;0.80;99.90;;;;;;5041605;28;20041;-60
2021/01/03 12:53:40;;;;;;;10.05;5.25;;;0.80;99.90;;;;;;5035767;28;20049;-56
2021/01/03 12:56:06;;;;;;;12.38;6.68;;;0.80;99.90;;;;;;5026228;28;20041;-60
2021/01/03 12:58:31;;;;;;;10.20;5.38;;;0.80;99.90;;;;;;5007553;28;20037;-60
2021/01/03 13:00:57;;;;;;;13.38;6.35;;;0.70;99.90;;;;;;5032870;28;20135;-62
2021/01/03 13:03:22;;;;;;;10.88;5.28;;;0.70;99.90;;;;;;5046134;28;20063;-61
2021/01/03 13:05:48;;;;;;;11.35;5.75;;;0.60;99.90;;;;;;5045918;28;20140;-59
2021/01/03 13:08:13;;;;;;;10.80;4.85;;;0.60;99.90;;;;;;5035452;28;20037;-60
2021/01/03 13:10:39;;;;;;;12.00;5.65;;;0.60;99.90;;;;;;5026202;28;20041;-60
2021/01/03 13:13:04;;;;;;;13.05;5.72;;;0.60;99.90;;;;;;5026234;28;20037;-59